Time;durP1;ratioP1;P1;durP2;ratioP2;P2;SDS_P1;SDS_P2;PMS_P1;PMS_P2;Temp;Humidity;BMP_temperature;BMP_pressure;BME280_temperature;BME280_humidity;BME280_pressure;Samples;Min_cycle;Max_cycle;Signal;HPM_P1;HPM_P2
2022/05/11 00:01:34;;;;;;;36.10;18.27;;;12.20;93.00;;;;;;4776153;29;20047;-74
2022/05/11 00:04:02;;;;;;;44.08;18.83;;;12.10;92.80;;;;;;4805742;29;20192;-75
2022/05/11 00:06:29;;;;;;;50.65;21.75;;;12.10;92.90;;;;;;4791017;29;20090;-75
2022/05/11 00:08:56;;;;;;;49.17;22.83;;;12.10;93.60;;;;;;4805828;29;20078;-75
2022/05/11 00:11:22;;;;;;;43.85;20.90;;;12.10;93.30;;;;;;4789608;29;20054;-75
2022/05/11 00:13:48;;;;;;;51.53;22.48;;;12.10;92.90;;;;;;4790571;29;20065;-75
2022/05/11 00:16:14;;;;;;;48.40;23.55;;;12.10;93.30;;;;;;4790138;29;20043;-76
2022/05/11 00:18:40;;;;;;;50.58;23.85;;;12.10;93.70;;;;;;4790304;29;20447;-74
2022/05/11 00:21:06;;;;;;;47.05;21.35;;;12.10;93.60;;;;;;4775554;29;20054;-76
2022/05/11 00:23:32;;;;;;;52.72;22.65;;;12.10;93.50;;;;;;4775522;29;20045;-74
2022/05/11 00:25:58;;;;;;;49.65;23.63;;;12.10;93.30;;;;;;4793069;29;20035;-74
2022/05/11 00:28:24;;;;;;;54.85;24.65;;;12.10;93.20;;;;;;4795694;29;20062;-74
2022/05/11 00:30:50;;;;;;;52.63;23.13;;;12.10;93.40;;;;;;4795437;29;20057;-72
2022/05/11 00:33:16;;;;;;;53.45;23.15;;;12.10;93.20;;;;;;4782344;29;20072;-73
2022/05/11 00:35:45;;;;;;;53.35;22.38;;;12.10;93.00;;;;;;4792621;29;20507;-76
2022/05/11 00:38:11;;;;;;;52.38;24.20;;;12.10;93.60;;;;;;4775744;29;20179;-75
2022/05/11 00:40:57;;;;;;;46.40;21.88;;;12.10;93.50;;;;;;4775669;29;20046;-75
2022/05/11 00:43:33;;;;;;;51.72;22.35;;;12.10;93.40;;;;;;4789982;29;20049;-76
2022/05/11 00:46:08;;;;;;;40.10;20.63;;;12.20;93.60;;;;;;4805040;29;20138;-76
2022/05/11 00:51:18;;;;;;;46.67;21.25;;;12.10;93.50;;;;;;4805360;29;20058;-75
2022/05/11 00:53:48;;;;;;;37.95;19.60;;;12.10;93.20;;;;;;4774995;29;20047;-74
2022/05/11 00:56:14;;;;;;;45.20;20.70;;;12.10;93.30;;;;;;4789756;29;20050;-75
2022/05/11 00:58:48;;;;;;;39.75;19.42;;;12.20;93.90;;;;;;4806138;29;20043;-75
2022/05/11 01:01:14;;;;;;;42.55;20.67;;;12.20;93.30;;;;;;4789600;29;20424;-75
2022/05/11 01:03:48;;;;;;;36.92;18.35;;;12.20;93.40;;;;;;4775326;29;20047;-75
2022/05/11 01:06:14;;;;;;;40.60;18.85;;;12.20;93.30;;;;;;4776190;29;20078;-75
2022/05/11 01:08:40;;;;;;;51.63;21.13;;;12.20;93.30;;;;;;4792909;29;20469;-74
2022/05/11 01:11:07;;;;;;;31.27;18.13;;;12.20;93.40;;;;;;4793582;29;20057;-76
2022/05/11 01:13:36;;;;;;;45.65;19.70;;;12.20;93.30;;;;;;4792937;29;20050;-73
2022/05/11 01:16:02;;;;;;;48.95;20.88;;;12.20;93.30;;;;;;4778552;29;20142;-76
2022/05/11 01:18:29;;;;;;;44.83;20.70;;;12.20;93.60;;;;;;4793798;29;20155;-75
2022/05/11 01:20:55;;;;;;;41.78;18.65;;;12.20;93.30;;;;;;4793791;29;20093;-75
2022/05/11 01:23:36;;;;;;;40.97;20.40;;;12.20;93.40;;;;;;4793256;29;20082;-76
2022/05/11 01:26:03;;;;;;;49.33;20.88;;;12.10;93.00;;;;;;4793142;29;20057;-74
2022/05/11 01:28:29;;;;;;;43.70;19.70;;;12.20;93.50;;;;;;4808521;29;20499;-75
2022/05/11 01:31:05;;;;;;;43.42;19.88;;;12.10;93.30;;;;;;4778019;29;20047;-74
2022/05/11 01:33:33;;;;;;;36.13;18.73;;;12.00;93.10;;;;;;4777978;29;20703;-76
2022/05/11 01:36:27;;;;;;;49.63;19.23;;;12.10;93.00;;;;;;4793393;29;20086;-74
2022/05/11 01:38:59;;;;;;;38.28;19.10;;;12.10;93.00;;;;;;4792533;29;20049;-75
2022/05/11 01:41:35;;;;;;;41.53;19.33;;;12.00;93.00;;;;;;4793467;29;20108;-75
2022/05/11 01:44:04;;;;;;;48.53;19.42;;;12.00;93.20;;;;;;4793278;29;20066;-74
2022/05/11 01:46:31;;;;;;;51.05;20.52;;;12.00;93.00;;;;;;4807125;29;20054;-74
2022/05/11 01:48:56;;;;;;;;;;;12.00;93.00;;;;;;4763553;29;20047;-76
2022/05/11 01:51:22;;;;;;;43.70;19.92;;;12.00;93.50;;;;;;4809163;29;19928;-74
2022/05/11 01:53:48;;;;;;;45.03;19.70;;;12.00;92.80;;;;;;4792832;29;20059;-75
2022/05/11 01:56:19;;;;;;;43.80;19.70;;;12.10;93.20;;;;;;4782235;29;20046;-73
2022/05/11 01:58:45;;;;;;;46.20;21.13;;;12.00;92.80;;;;;;4814402;29;20109;-72
2022/05/11 02:01:11;;;;;;;;;;;12.00;92.80;;;;;;4799716;29;20055;-73
2022/05/11 02:03:37;;;;;;;40.90;19.48;;;12.00;93.50;;;;;;4809249;29;19928;-75
2022/05/11 02:08:48;;;;;;;41.83;20.58;;;12.00;92.80;;;;;;4807653;29;20061;-74
2022/05/11 02:11:14;;;;;;;40.78;18.60;;;12.00;93.70;;;;;;4807717;29;20503;-73
2022/05/11 02:13:40;;;;;;;49.33;19.60;;;11.90;93.20;;;;;;4792908;29;20099;-76
2022/05/11 02:16:07;;;;;;;47.47;20.92;;;11.90;93.50;;;;;;4792544;29;20426;-74
2022/05/11 02:18:33;;;;;;;40.05;18.95;;;11.90;93.40;;;;;;4792372;29;20069;-73
2022/05/11 02:20:59;;;;;;;41.50;18.75;;;11.90;93.10;;;;;;4777884;29;20051;-74
2022/05/11 02:23:25;;;;;;;44.03;18.20;;;12.00;93.10;;;;;;4807770;29;20043;-74
2022/05/11 02:25:52;;;;;;;43.30;18.65;;;11.90;92.90;;;;;;4792514;29;20485;-74
2022/05/11 02:28:21;;;;;;;38.65;18.83;;;11.90;92.90;;;;;;4777607;29;20134;-74
2022/05/11 02:30:49;;;;;;;41.83;17.52;;;12.00;92.80;;;;;;4777465;29;20053;-75
2022/05/11 02:33:15;;;;;;;43.85;18.15;;;11.90;92.90;;;;;;4792329;29;20050;-74
2022/05/11 02:35:43;;;;;;;41.85;16.05;;;11.90;93.00;;;;;;4807438;29;20055;-75
2022/05/11 02:38:13;;;;;;;34.00;16.02;;;11.90;93.10;;;;;;4777350;29;20436;-74
2022/05/11 02:40:40;;;;;;;34.63;15.95;;;11.90;92.90;;;;;;4792000;29;20130;-75
2022/05/11 02:43:08;;;;;;;36.58;15.00;;;11.90;92.80;;;;;;4791908;29;20039;-75
2022/05/11 02:45:35;;;;;;;34.05;15.13;;;11.90;92.90;;;;;;4791700;29;20384;-75
2022/05/11 02:48:02;;;;;;;30.42;14.80;;;11.90;92.70;;;;;;4776920;29;20058;-74
2022/05/11 02:50:55;;;;;;;31.85;14.80;;;11.80;92.70;;;;;;4777236;29;20049;-73
2022/05/11 02:53:23;;;;;;;36.17;15.77;;;11.80;92.90;;;;;;4804472;29;20523;-74
2022/05/11 02:55:51;;;;;;;30.17;14.52;;;11.90;93.00;;;;;;4791641;29;20074;-75
2022/05/11 02:58:19;;;;;;;33.88;14.32;;;11.90;92.90;;;;;;4790972;29;20058;-75
2022/05/11 03:00:47;;;;;;;35.33;15.55;;;11.90;92.90;;;;;;4792070;29;20102;-74
2022/05/11 03:03:17;;;;;;;29.10;13.82;;;11.90;93.20;;;;;;4776642;29;20480;-75
2022/05/11 03:05:44;;;;;;;36.53;15.25;;;11.90;92.60;;;;;;4791650;29;20078;-74
2022/05/11 03:08:11;;;;;;;31.92;15.10;;;12.00;92.50;;;;;;4791841;29;20042;-75
2022/05/11 03:10:39;;;;;;;31.38;14.40;;;12.00;92.60;;;;;;4776587;29;20038;-74
2022/05/11 03:13:05;;;;;;;37.38;14.50;;;12.00;92.70;;;;;;4791904;29;20054;-75
2022/05/11 03:15:31;;;;;;;34.63;14.95;;;12.00;92.40;;;;;;4791382;29;20366;-76
2022/05/11 03:17:57;;;;;;;32.92;13.55;;;12.00;92.90;;;;;;4791411;29;20046;-74
2022/05/11 03:20:25;;;;;;;35.47;14.50;;;11.90;92.40;;;;;;4791511;29;20119;-75
2022/05/11 03:22:51;;;;;;;28.25;14.20;;;11.90;92.60;;;;;;4776813;29;20384;-76
2022/05/11 03:25:17;;;;;;;34.30;14.52;;;11.90;92.60;;;;;;4796649;29;20673;-75
2022/05/11 03:27:43;;;;;;;29.60;13.95;;;11.90;92.50;;;;;;4781526;29;20107;-73
2022/05/11 03:30:09;;;;;;;33.95;14.05;;;11.90;93.10;;;;;;4796886;29;20055;-73
2022/05/11 03:35:20;;;;;;;31.95;13.18;;;12.00;92.60;;;;;;4806260;29;20275;-75
2022/05/11 03:37:46;;;;;;;33.88;13.02;;;11.90;92.70;;;;;;4776696;29;20050;-75
2022/05/11 03:40:12;;;;;;;34.45;13.45;;;11.90;92.50;;;;;;4791487;29;20053;-74
2022/05/11 03:42:39;;;;;;;33.58;12.75;;;12.10;92.60;;;;;;4791374;29;20072;-75
2022/05/11 03:45:16;;;;;;;27.88;12.73;;;11.90;92.40;;;;;;4791147;29;20059;-75
2022/05/11 03:47:43;;;;;;;29.33;12.43;;;11.90;92.60;;;;;;4805686;29;20110;-74
2022/05/11 03:50:09;;;;;;;30.73;12.68;;;12.00;92.60;;;;;;4791171;29;20053;-75
2022/05/11 03:52:35;;;;;;;26.95;12.10;;;12.00;92.40;;;;;;4791267;29;20050;-74
2022/05/11 03:55:02;;;;;;;34.05;12.48;;;12.00;92.50;;;;;;4791093;29;20039;-75
2022/05/11 03:57:28;;;;;;;29.58;11.75;;;12.00;92.60;;;;;;4791193;29;20050;-75
2022/05/11 03:59:54;;;;;;;33.95;12.10;;;12.00;92.50;;;;;;4790950;29;20051;-76
2022/05/11 04:02:19;;;;;;;31.85;12.13;;;12.10;92.50;;;;;;4760581;29;20099;-75
2022/05/11 04:04:48;;;;;;;28.70;12.38;;;12.10;92.40;;;;;;4790860;29;20047;-74
2022/05/11 04:07:14;;;;;;;30.33;11.85;;;12.10;92.40;;;;;;4790924;29;20050;-74
2022/05/11 04:09:39;;;;;;;29.23;12.13;;;12.10;92.20;;;;;;4775727;29;20095;-75
2022/05/11 04:12:06;;;;;;;34.58;11.57;;;12.00;92.50;;;;;;4775625;29;20058;-74
2022/05/11 04:14:32;;;;;;;26.55;11.73;;;12.00;92.40;;;;;;4790949;29;20098;-75
2022/05/11 04:16:59;;;;;;;32.00;12.52;;;12.00;92.10;;;;;;4790542;29;20046;-75
2022/05/11 04:19:29;;;;;;;28.90;10.73;;;12.00;92.10;;;;;;4790635;29;20115;-74
2022/05/11 04:21:55;;;;;;;29.90;11.60;;;12.10;92.40;;;;;;4791117;29;20446;-75
2022/05/11 04:24:21;;;;;;;25.30;11.07;;;12.00;92.30;;;;;;4775897;29;20050;-76
2022/05/11 04:26:47;;;;;;;25.95;11.85;;;12.10;92.40;;;;;;4790507;29;20055;-74
2022/05/11 04:29:13;;;;;;;30.33;11.57;;;12.10;92.30;;;;;;4806630;29;20116;-73
2022/05/11 04:31:39;;;;;;;27.85;11.60;;;12.10;92.50;;;;;;4790367;29;20426;-73
2022/05/11 04:34:04;;;;;;;32.75;12.52;;;12.10;92.40;;;;;;4760051;29;20058;-75
2022/05/11 04:36:30;;;;;;;26.98;11.13;;;12.10;92.50;;;;;;4774387;29;20417;-74
2022/05/11 04:38:57;;;;;;;29.02;11.07;;;12.20;92.40;;;;;;4776441;29;20042;-76
2022/05/11 04:41:23;;;;;;;29.42;11.30;;;12.20;92.40;;;;;;4774334;29;20047;-74
2022/05/11 04:43:49;;;;;;;29.65;11.80;;;12.20;92.50;;;;;;4775227;29;20376;-73
2022/05/11 04:46:14;;;;;;;27.17;10.70;;;12.30;92.30;;;;;;4805105;29;20051;-75
2022/05/11 04:48:42;;;;;;;29.38;11.05;;;12.30;92.40;;;;;;4790703;29;20765;-74
2022/05/11 04:51:08;;;;;;;25.17;9.82;;;12.30;92.50;;;;;;4790530;29;20054;-76
2022/05/11 04:53:34;;;;;;;27.88;11.35;;;12.40;92.20;;;;;;4809847;29;20054;-74
2022/05/11 04:56:00;;;;;;;28.48;10.43;;;12.40;92.20;;;;;;4811652;29;20091;-73
2022/05/11 04:58:26;;;;;;;25.42;11.18;;;12.50;92.20;;;;;;4796187;29;20047;-73
2022/05/11 05:00:51;;;;;;;33.20;10.73;;;12.50;92.20;;;;;;4797418;29;20050;-72
2022/05/11 05:03:17;;;;;;;31.60;11.70;;;12.50;92.20;;;;;;4813864;29;20319;-72
2022/05/11 05:05:43;;;;;;;32.75;10.32;;;12.60;92.20;;;;;;4790734;29;20095;-75
2022/05/11 05:08:09;;;;;;;25.95;10.05;;;12.60;92.20;;;;;;4775194;29;20045;-74
2022/05/11 05:10:36;;;;;;;26.17;10.20;;;12.70;92.10;;;;;;4790252;29;20503;-74
2022/05/11 05:13:08;;;;;;;28.13;10.88;;;12.70;92.10;;;;;;4790161;29;20054;-74
2022/05/11 05:15:36;;;;;;;28.83;10.45;;;12.70;92.10;;;;;;4790364;29;20063;-76
2022/05/11 05:18:05;;;;;;;29.33;11.25;;;12.70;92.00;;;;;;4775103;29;20050;-73
2022/05/11 05:20:31;;;;;;;33.83;10.85;;;12.80;92.00;;;;;;4775304;29;20496;-75
2022/05/11 05:22:57;;;;;;;32.75;10.45;;;12.80;91.90;;;;;;4800104;29;20046;-75
2022/05/11 05:25:22;;;;;;;24.98;9.32;;;12.90;91.90;;;;;;4792502;29;20042;-76
2022/05/11 05:27:52;;;;;;;34.10;9.43;;;12.90;92.00;;;;;;4807399;29;20519;-74
2022/05/11 05:33:03;;;;;;;26.08;9.25;;;13.00;91.70;;;;;;4806910;29;20050;-73
2022/05/11 05:35:29;;;;;;;32.15;10.02;;;13.10;91.60;;;;;;4808018;29;20045;-74
2022/05/11 05:37:55;;;;;;;32.45;10.50;;;13.10;91.60;;;;;;4792846;29;20039;-75
2022/05/11 05:40:21;;;;;;;30.77;9.48;;;13.20;91.50;;;;;;4824169;29;20054;-75
2022/05/11 05:42:48;;;;;;;28.48;9.35;;;13.20;91.30;;;;;;4792502;29;20046;-75
2022/05/11 05:45:14;;;;;;;27.20;8.80;;;13.30;91.10;;;;;;4807831;29;20038;-76
2022/05/11 05:47:40;;;;;;;25.45;8.75;;;13.40;91.20;;;;;;4792379;29;20083;-73
2022/05/11 05:50:08;;;;;;;24.10;8.13;;;13.40;91.10;;;;;;4792442;29;20492;-73
2022/05/11 05:52:33;;;;;;;26.80;9.02;;;13.50;90.90;;;;;;4794177;29;20038;-73
2022/05/11 05:54:59;;;;;;;33.78;9.05;;;13.50;90.90;;;;;;4811097;29;20382;-74
2022/05/11 05:57:27;;;;;;;26.50;9.00;;;13.50;90.80;;;;;;4796129;29;20061;-75
2022/05/11 05:59:53;;;;;;;19.70;7.50;;;13.60;90.60;;;;;;4811436;29;20124;-74
2022/05/11 06:02:19;;;;;;;23.65;8.93;;;13.70;90.60;;;;;;4827131;29;20054;-74
2022/05/11 06:04:50;;;;;;;26.00;7.47;;;13.70;90.50;;;;;;4796162;29;20053;-73
2022/05/11 06:07:21;;;;;;;23.90;7.88;;;13.80;90.20;;;;;;4811110;29;20477;-75
2022/05/11 06:09:47;;;;;;;25.90;7.95;;;13.90;90.30;;;;;;4811009;29;20050;-72
2022/05/11 06:12:14;;;;;;;24.45;6.60;;;13.90;90.10;;;;;;4794640;29;20484;-71
2022/05/11 06:14:41;;;;;;;27.70;6.65;;;14.00;89.20;;;;;;4794894;29;20496;-70
2022/05/11 06:17:20;;;;;;;;;;;14.00;89.00;;;;;;4810532;29;20049;-70
2022/05/11 06:19:49;;;;;;;20.33;4.65;;;14.00;87.20;;;;;;4809485;29;20011;-71
2022/05/11 06:22:15;;;;;;;22.75;4.78;;;14.00;86.40;;;;;;4776384;29;20043;-74
2022/05/11 06:24:41;;;;;;;20.42;5.32;;;14.10;87.20;;;;;;4777753;29;20614;-74
2022/05/11 06:27:17;;;;;;;28.90;5.85;;;14.10;87.00;;;;;;4777664;29;20057;-72
2022/05/11 06:29:49;;;;;;;23.85;4.90;;;14.20;86.50;;;;;;4809780;29;20384;-71
2022/05/11 06:32:19;;;;;;;16.92;4.32;;;14.20;87.00;;;;;;4826809;29;20047;-72
2022/05/11 06:34:51;;;;;;;18.55;4.82;;;14.30;86.20;;;;;;4810183;29;20042;-71
2022/05/11 06:37:19;;;;;;;19.98;4.43;;;14.30;86.20;;;;;;4825414;29;20062;-73
2022/05/11 06:39:44;;;;;;;20.02;4.47;;;14.40;84.80;;;;;;4824971;29;20121;-73
2022/05/11 06:42:29;;;;;;;19.13;4.05;;;14.40;85.10;;;;;;4825097;29;20133;-78
2022/05/11 06:44:55;;;;;;;28.65;5.10;;;14.60;84.20;;;;;;4791052;29;20061;-76
2022/05/11 06:51:24;;;;;;;20.83;5.57;;;14.70;83.40;;;;;;4787547;30;20055;-78
2022/05/11 06:59:20;;;;;;;20.25;4.63;;;14.80;83.10;;;;;;4782363;30;20385;-71
2022/05/11 06:59:21;;;;;;;17.23;4.32;;;15.10;83.40;;;;;;4787710;30;20077;-72
2022/05/11 07:01:52;;;;;;;20.37;5.37;;;15.40;83.00;;;;;;4772657;30;20089;-69
2022/05/11 07:04:18;;;;;;;18.98;4.25;;;15.30;81.60;;;;;;4771434;30;20126;-70
2022/05/11 07:06:45;;;;;;;22.33;4.82;;;15.30;80.80;;;;;;4772840;30;20126;-71
2022/05/11 07:09:10;;;;;;;26.27;5.05;;;15.30;81.40;;;;;;4773330;30;20083;-70
2022/05/11 07:14:26;;;;;;;23.33;4.63;;;15.20;80.80;;;;;;4787840;30;20059;-77
2022/05/11 07:16:52;;;;;;;18.73;4.55;;;15.20;81.10;;;;;;4743075;30;20051;-73
2022/05/11 07:19:21;;;;;;;23.77;5.10;;;15.30;81.20;;;;;;4757912;30;20047;-74
2022/05/11 07:21:47;;;;;;;21.35;4.55;;;15.40;81.20;;;;;;4812439;29;20046;-74
2022/05/11 07:24:12;;;;;;;24.60;4.90;;;15.40;81.00;;;;;;4809846;29;20430;-75
2022/05/11 07:26:38;;;;;;;17.85;4.15;;;15.50;80.70;;;;;;4794309;29;20442;-72
2022/05/11 07:29:04;;;;;;;18.55;5.05;;;15.70;80.60;;;;;;4779648;29;20072;-68
2022/05/11 07:31:30;;;;;;;;;;;15.90;80.50;;;;;;4826140;29;20038;-69
2022/05/11 07:33:58;;;;;;;20.75;4.47;;;16.00;79.10;;;;;;4809306;29;20092;-74
2022/05/11 07:36:24;;;;;;;22.67;4.68;;;16.10;79.30;;;;;;4824191;29;20042;-72
2022/05/11 07:38:53;;;;;;;17.13;4.00;;;16.20;79.30;;;;;;4809070;29;20042;-72
2022/05/11 07:41:19;;;;;;;16.58;4.68;;;16.20;79.10;;;;;;4793214;29;20131;-66
2022/05/11 07:43:45;;;;;;;21.58;5.00;;;16.20;78.20;;;;;;4808628;29;20081;-67
2022/05/11 07:46:11;;;;;;;;;;;16.30;78.20;;;;;;4794386;29;20046;-74
2022/05/11 07:48:37;;;;;;;17.77;3.95;;;16.40;76.80;;;;;;4808444;29;19924;-74
2022/05/11 07:51:03;;;;;;;26.98;4.70;;;16.70;77.60;;;;;;4808295;29;20511;-72
2022/05/11 07:53:30;;;;;;;24.35;4.90;;;16.90;77.30;;;;;;4809072;29;20053;-70
2022/05/11 08:01:24;;;;;;;22.67;4.93;;;16.80;74.60;;;;;;4809186;29;20038;-68
2022/05/11 08:03:50;;;;;;;20.88;5.07;;;16.80;75.40;;;;;;4825787;29;20094;-78
2022/05/11 08:06:19;;;;;;;26.90;4.78;;;16.80;75.40;;;;;;4795017;29;20042;-78
2022/05/11 08:09:04;;;;;;;23.42;4.43;;;16.80;75.00;;;;;;4808549;29;20045;-76
2022/05/11 08:11:30;;;;;;;24.02;4.45;;;17.20;74.30;;;;;;4793116;29;20445;-74
2022/05/11 08:13:56;;;;;;;17.95;3.95;;;17.10;73.40;;;;;;4807684;29;20064;-73
2022/05/11 08:16:22;;;;;;;27.60;4.45;;;17.50;73.80;;;;;;4806406;29;20498;-70
2022/05/11 08:18:48;;;;;;;22.85;4.55;;;17.70;72.30;;;;;;4793604;29;20043;-72
2022/05/11 08:21:13;;;;;;;16.58;3.55;;;17.70;71.10;;;;;;4793943;29;20096;-73
2022/05/11 08:23:40;;;;;;;21.80;4.15;;;17.70;71.20;;;;;;4808912;29;20043;-73
2022/05/11 08:26:06;;;;;;;;;;;17.70;69.30;;;;;;4809113;29;20056;-72
2022/05/11 08:28:32;;;;;;;14.75;3.13;;;17.70;68.40;;;;;;4808854;29;19927;-75
2022/05/11 08:33:42;;;;;;;16.58;3.63;;;17.70;68.50;;;;;;4795798;29;20107;-76
2022/05/11 08:36:20;;;;;;;17.20;3.35;;;17.80;67.10;;;;;;4808591;29;20050;-76
2022/05/11 08:38:51;;;;;;;14.48;2.80;;;17.90;66.60;;;;;;4808069;29;20042;-76
2022/05/11 08:41:33;;;;;;;19.05;3.22;;;17.90;65.90;;;;;;4809837;29;20050;-75
2022/05/11 08:44:04;;;;;;;14.02;3.20;;;18.00;64.60;;;;;;4811319;29;20050;-68
2022/05/11 08:47:04;;;;;;;12.02;2.97;;;18.10;64.70;;;;;;4808125;29;20070;-68
2022/05/11 08:49:49;;;;;;;15.88;2.63;;;18.20;63.40;;;;;;4808693;29;20058;-69
2022/05/11 08:52:40;;;;;;;18.73;3.15;;;18.30;65.00;;;;;;4823555;29;20046;-68
2022/05/11 08:55:25;;;;;;;18.02;2.83;;;18.20;62.30;;;;;;4808374;29;20492;-69
2022/05/11 08:57:53;;;;;;;13.60;2.65;;;18.20;62.30;;;;;;4808476;29;20050;-67
2022/05/11 09:00:19;;;;;;;13.23;2.40;;;18.20;64.10;;;;;;4808611;29;20051;-67
2022/05/11 09:02:53;;;;;;;18.13;3.15;;;18.10;64.00;;;;;;4824784;29;20428;-68
2022/05/11 09:05:23;;;;;;;25.45;4.82;;;18.30;64.10;;;;;;4823454;29;20519;-69
2022/05/11 09:07:53;;;;;;;20.67;3.67;;;18.50;63.30;;;;;;4808267;29;20096;-70
2022/05/11 09:10:22;;;;;;;18.63;3.53;;;18.80;64.30;;;;;;4808251;29;20046;-68
2022/05/11 09:12:53;;;;;;;20.52;3.20;;;19.10;62.10;;;;;;4824459;29;20061;-67
2022/05/11 09:15:19;;;;;;;23.08;3.92;;;19.20;60.30;;;;;;4808212;29;20042;-67
2022/05/11 09:17:44;;;;;;;18.48;3.22;;;19.30;61.30;;;;;;4808276;29;20540;-70
2022/05/11 09:20:17;;;;;;;21.15;4.07;;;19.30;59.90;;;;;;4807176;29;20147;-69
2022/05/11 09:22:52;;;;;;;18.35;3.50;;;19.30;60.40;;;;;;4807574;29;20528;-74
2022/05/11 09:25:27;;;;;;;19.05;3.63;;;19.30;58.40;;;;;;4824211;29;20046;-71
2022/05/11 09:28:22;;;;;;;16.73;3.30;;;19.40;59.80;;;;;;4810529;29;20046;-72
2022/05/11 09:31:24;;;;;;;17.80;3.10;;;19.70;58.90;;;;;;4826674;29;20046;-70
2022/05/11 09:34:03;;;;;;;13.50;2.88;;;19.90;58.20;;;;;;4778918;29;20066;-72
2022/05/11 09:36:40;;;;;;;15.30;2.78;;;20.00;57.60;;;;;;4796769;29;20136;-72
2022/05/11 09:39:17;;;;;;;18.85;3.25;;;20.00;56.50;;;;;;4811702;29;20077;-70
2022/05/11 09:41:49;;;;;;;12.40;3.33;;;20.00;57.20;;;;;;4811561;29;20046;-70
2022/05/11 09:44:23;;;;;;;17.95;3.97;;;20.00;56.00;;;;;;4811523;29;20059;-70
2022/05/11 09:46:50;;;;;;;17.55;3.25;;;20.30;56.90;;;;;;4826119;29;20454;-70
2022/05/11 09:49:19;;;;;;;9.15;2.13;;;20.30;55.50;;;;;;4826244;29;20054;-71
2022/05/11 09:51:50;;;;;;;11.75;2.65;;;20.40;53.90;;;;;;4811056;29;20053;-70
2022/05/11 09:54:19;;;;;;;11.63;2.55;;;20.30;52.90;;;;;;4811014;29;20058;-71
2022/05/11 09:56:52;;;;;;;16.33;2.67;;;20.20;53.60;;;;;;4811164;29;20046;-72
2022/05/11 10:00:33;;;;;;;;;;;;;;;;;;;;;
2022/05/11 10:28:11;;;;;;;13.77;2.10;;;20.20;53.40;;;;;;5377189;23;20058;-78
2022/05/11 10:31:00;;;;;;;23.80;2.47;;;19.90;53.30;;;;;;4810328;29;20108;-74
2022/05/11 10:33:35;;;;;;;15.10;2.67;;;20.00;54.10;;;;;;4826691;29;20527;-73
2022/05/11 10:36:14;;;;;;;15.43;2.88;;;20.40;54.80;;;;;;4826561;29;20125;-73
2022/05/11 10:39:16;;;;;;;12.68;2.95;;;20.50;51.80;;;;;;4810289;29;20450;-71
2022/05/11 10:41:51;;;;;;;16.35;1.40;;;20.90;52.20;;;;;;4810496;29;20058;-71
2022/05/11 10:44:36;;;;;;;8.07;2.05;;;21.00;48.90;;;;;;4810284;29;20060;-73
2022/05/11 10:47:38;;;;;;;12.10;2.08;;;21.10;50.70;;;;;;4810275;29;20090;-71
2022/05/11 10:50:20;;;;;;;9.45;2.30;;;21.10;49.50;;;;;;4826415;29;20058;-73
2022/05/11 10:53:11;;;;;;;17.30;2.53;;;21.10;50.60;;;;;;4810211;29;20107;-73
2022/05/11 10:55:58;;;;;;;15.32;3.17;;;21.10;52.10;;;;;;4810240;29;20061;-71
2022/05/11 10:58:37;;;;;;;15.38;3.40;;;20.90;52.20;;;;;;4810273;29;20050;-74
2022/05/11 11:01:06;;;;;;;22.58;3.42;;;20.70;53.50;;;;;;4808430;29;20081;-76
2022/05/11 11:04:01;;;;;;;25.83;3.50;;;20.40;54.70;;;;;;4802407;29;20051;-75
2022/05/11 11:10:08;;;;;;;14.57;3.40;;;20.50;56.30;;;;;;4790384;29;20074;-75
2022/05/11 11:12:44;;;;;;;;;;;20.70;55.90;;;;;;4787374;29;20067;-79
2022/05/11 11:15:13;;;;;;;26.58;4.63;;;20.70;56.60;;;;;;4810116;29;19931;-74
2022/05/11 11:17:42;;;;;;;20.50;4.05;;;21.00;57.00;;;;;;4805610;29;20065;-73
2022/05/11 11:20:10;;;;;;;19.40;3.42;;;20.80;55.50;;;;;;4823077;29;20270;-75
2022/05/11 11:23:06;;;;;;;22.10;3.97;;;20.60;54.30;;;;;;4802842;29;20054;-74
2022/05/11 11:26:02;;;;;;;20.25;4.35;;;20.50;54.40;;;;;;4808002;29;20062;-73
2022/05/11 11:28:34;;;;;;;18.77;4.03;;;20.50;54.50;;;;;;4799125;29;20057;-76
2022/05/11 11:30:59;;;;;;;18.77;4.10;;;20.40;55.90;;;;;;4806734;29;20058;-77
2022/05/11 11:33:26;;;;;;;21.20;4.03;;;20.30;55.40;;;;;;4801639;29;20107;-75
2022/05/11 11:35:52;;;;;;;26.35;4.00;;;20.50;56.00;;;;;;4807668;29;20142;-72
2022/05/11 11:38:28;;;;;;;22.00;3.92;;;20.60;56.30;;;;;;4807758;29;20463;-75
2022/05/11 11:41:20;;;;;;;11.80;3.05;;;20.70;55.20;;;;;;4803419;29;20578;-72
2022/05/11 11:44:31;;;;;;;;;;;;;;;;;;;;;
2022/05/11 11:47:26;;;;;;;18.20;3.38;;;21.10;54.90;;;;;;4811131;29;20066;-73
2022/05/11 11:49:54;;;;;;;17.83;3.10;;;20.90;54.30;;;;;;4808439;29;20054;-72
2022/05/11 11:52:41;;;;;;;15.65;3.63;;;20.90;55.00;;;;;;4820757;29;20057;-75
2022/05/11 11:55:24;;;;;;;21.27;3.72;;;20.70;55.20;;;;;;4806464;29;20058;-76
2022/05/11 11:57:56;;;;;;;25.27;4.05;;;20.80;55.00;;;;;;4806005;29;20130;-77
2022/05/11 12:00:45;;;;;;;19.67;3.85;;;20.80;55.60;;;;;;4806156;29;20054;-76
2022/05/11 12:03:22;;;;;;;18.98;3.55;;;20.70;54.80;;;;;;4775059;29;20176;-75
2022/05/11 12:05:52;;;;;;;17.90;4.20;;;20.70;55.90;;;;;;4799989;29;20038;-73
2022/05/11 12:17:00;;;;;;;16.23;3.92;;;20.90;56.20;;;;;;4807074;29;20097;-77
2022/05/11 12:19:36;;;;;;;25.80;4.55;;;21.00;55.80;;;;;;4806096;29;20066;-76
2022/05/11 12:22:19;;;;;;;23.85;4.63;;;20.70;55.00;;;;;;4806999;29;20088;-78
2022/05/11 12:25:00;;;;;;;22.70;4.00;;;20.50;56.70;;;;;;4780767;29;20082;-78
2022/05/11 12:31:36;;;;;;;31.63;5.10;;;19.70;58.20;;;;;;4808122;29;20178;-84
2022/05/11 12:38:30;;;;;;;;;;;;;;;;;;;;;
2022/05/11 12:40:58;;;;;;;24.52;4.55;;;19.40;62.60;;;;;;4719996;30;20056;-76
2022/05/11 12:43:33;;;;;;;29.42;5.47;;;19.10;62.60;;;;;;4797352;29;20050;-75
2022/05/11 12:46:02;;;;;;;26.48;5.47;;;19.00;63.30;;;;;;4807839;29;20075;-76
2022/05/11 12:48:34;;;;;;;31.20;6.45;;;19.00;63.80;;;;;;4808419;29;20373;-76
2022/05/11 12:51:04;;;;;;;31.95;6.03;;;18.90;63.90;;;;;;4808266;29;20066;-75
2022/05/11 12:53:32;;;;;;;23.17;5.25;;;18.80;64.50;;;;;;4808297;29;20062;-76
2022/05/11 12:57:02;;;;;;;31.70;5.53;;;18.70;64.50;;;;;;4793221;29;20132;-75
2022/05/11 12:59:29;;;;;;;24.20;5.82;;;18.90;65.00;;;;;;4808503;29;20090;-78
2022/05/11 13:02:26;;;;;;;26.08;5.68;;;19.20;64.70;;;;;;4793742;29;20540;-77
2022/05/11 13:05:08;;;;;;;25.98;5.57;;;19.50;63.70;;;;;;4796944;29;20523;-85
2022/05/11 13:07:42;;;;;;;26.23;5.13;;;19.70;62.70;;;;;;4812079;29;20043;-77
2022/05/11 13:10:14;;;;;;;27.95;5.28;;;19.80;61.50;;;;;;4811498;29;20065;-77
2022/05/11 13:12:55;;;;;;;34.35;6.40;;;19.80;62.50;;;;;;4811722;29;20061;-83
2022/05/11 13:15:42;;;;;;;27.40;5.43;;;20.00;62.20;;;;;;4797126;29;20053;-77
2022/05/11 13:18:13;;;;;;;;;;;20.10;60.10;;;;;;4821938;29;20053;-75
2022/05/11 13:20:43;;;;;;;25.58;5.45;;;19.80;59.10;;;;;;4823284;29;19925;-74
2022/05/11 13:23:33;;;;;;;31.63;5.38;;;19.90;59.50;;;;;;4822779;29;20041;-74
2022/05/11 13:26:10;;;;;;;30.13;4.93;;;19.90;60.20;;;;;;4819207;29;20396;-78
2022/05/11 13:28:42;;;;;;;31.65;4.88;;;20.10;60.80;;;;;;4811362;29;20404;-77
2022/05/11 13:31:25;;;;;;;22.40;3.72;;;20.30;60.50;;;;;;4811253;29;20133;-76
2022/05/11 13:34:01;;;;;;;;;;;;;;;;;;;;;
2022/05/11 13:36:44;;;;;;;20.55;4.40;;;20.50;57.90;;;;;;4810701;29;20046;-75
2022/05/11 13:39:19;;;;;;;26.15;5.20;;;20.40;57.20;;;;;;4811069;29;20053;-76
2022/05/11 13:41:53;;;;;;;20.20;4.00;;;20.30;57.60;;;;;;4811123;29;20133;-78
2022/05/11 13:44:32;;;;;;;24.48;5.13;;;20.10;58.70;;;;;;4811399;29;20053;-78
2022/05/11 13:49:47;;;;;;;19.60;4.53;;;19.70;59.80;;;;;;4811514;29;20058;-77
2022/05/11 13:52:36;;;;;;;20.50;4.10;;;19.80;59.40;;;;;;4811043;29;20062;-76
2022/05/11 13:55:04;;;;;;;20.38;4.43;;;19.70;59.50;;;;;;4811066;29;20093;-76
2022/05/11 13:57:36;;;;;;;22.20;4.32;;;19.60;59.40;;;;;;4810890;29;20125;-77
2022/05/11 14:00:11;;;;;;;22.27;3.95;;;19.70;59.10;;;;;;4811393;29;20085;-78
2022/05/11 14:02:37;;;;;;;21.13;4.07;;;19.80;58.60;;;;;;4811231;29;20414;-77
2022/05/11 14:05:03;;;;;;;24.55;3.92;;;19.70;59.10;;;;;;4811199;29;20053;-77
2022/05/11 14:07:29;;;;;;;21.92;3.90;;;19.70;59.30;;;;;;4810904;29;20066;-79
2022/05/11 14:09:56;;;;;;;17.27;3.58;;;19.70;59.30;;;;;;4810861;29;20130;-76
2022/05/11 14:12:23;;;;;;;19.10;4.38;;;19.50;59.60;;;;;;4810086;29;20055;-78
2022/05/11 14:14:50;;;;;;;16.98;3.83;;;19.30;59.50;;;;;;4810317;29;20078;-78
2022/05/11 14:17:25;;;;;;;17.38;3.47;;;19.20;59.60;;;;;;4816981;29;20049;-77
2022/05/11 14:19:57;;;;;;;19.35;3.85;;;19.10;61.20;;;;;;4817032;29;20154;-78